createdAt,value
2019-04-22T00:03:37.757Z,988.19
2019-04-22T00:07:41.989Z,988.11
2019-04-22T00:12:01.292Z,988.29
2019-04-22T00:16:07.342Z,988.42
2019-04-22T00:23:57.844Z,988.47
2019-04-22T00:28:08.703Z,988.11
2019-04-22T00:32:11.608Z,988.16
2019-04-22T00:36:17.843Z,988.16
2019-04-22T00:40:30.967Z,988.01
2019-04-22T00:44:41.537Z,988.49
2019-04-22T00:49:09.575Z,988.57
2019-04-22T00:53:48.186Z,988.24
2019-04-22T00:57:46.499Z,988.27
2019-04-22T01:00:44.442Z,988.18
2019-04-22T01:04:46.515Z,988.45
2019-04-22T01:09:07.696Z,988.53
2019-04-22T01:13:15.855Z,988.72
2019-04-22T01:17:27.704Z,988.93
2019-04-22T01:25:08.778Z,988.96
2019-04-22T01:29:05.404Z,989.07
2019-04-22T01:32:45.693Z,989.18
2019-04-22T01:44:09.780Z,988.61
2019-04-22T01:48:12.909Z,988.26
2019-04-22T01:55:57.394Z,988.18
2019-04-22T02:00:01.057Z,988.31
2019-04-22T02:07:51.647Z,988.76
2019-04-22T02:12:17.698Z,988.9
2019-04-22T02:16:19.902Z,988.95
2019-04-22T02:20:25.320Z,988.92
2019-04-22T02:24:33.291Z,989
2019-04-22T02:32:38.890Z,988.84
2019-04-22T02:36:53.399Z,988.37
2019-04-22T02:44:44.786Z,988.6
2019-04-22T02:52:47.298Z,988.96
2019-04-22T02:56:56.510Z,989.03
2019-04-22T03:00:40.213Z,988.99
2019-04-22T03:05:07.499Z,988.54
2019-04-22T03:09:18.084Z,988.58
2019-04-22T03:17:10.287Z,988.64
2019-04-22T03:21:17.577Z,988.6
2019-04-22T03:26:04.673Z,988.86
2019-04-22T03:30:51.157Z,989.02
2019-04-22T03:35:37.072Z,989.48
2019-04-22T03:43:35.188Z,990.1
2019-04-22T03:47:59.631Z,990.55
2019-04-22T03:52:16.167Z,991.07
2019-04-22T04:00:08.407Z,991.85
2019-04-22T04:04:37.201Z,992.68
2019-04-22T04:08:33.480Z,993.29
2019-04-22T04:12:56.548Z,994.02
2019-04-22T04:17:20.804Z,994.75
2019-04-22T04:21:41.253Z,995.4
2019-04-22T04:25:46.595Z,995.96
2019-04-22T04:30:13.838Z,996.42
2019-04-22T04:38:11.708Z,997.87
2019-04-22T04:46:06.455Z,999.31
2019-04-22T04:50:39.976Z,1000
2019-04-22T04:54:56.978Z,1000.95
2019-04-22T04:59:30.343Z,1001.63
2019-04-22T05:01:07.301Z,1002.01
2019-04-22T05:05:31.505Z,1003.14
2019-04-22T05:09:41.152Z,1003.62
2019-04-22T05:13:55.011Z,1004.02
2019-04-22T05:25:25.235Z,1004.77
2019-04-22T05:29:55.440Z,1004.96
2019-04-22T05:33:56.704Z,1005
2019-04-22T05:38:04.463Z,1005.61
2019-04-22T05:42:17.892Z,1004.97
2019-04-22T05:46:22.379Z,1004.67
2019-04-22T05:50:13.051Z,1004.64
2019-04-22T05:54:16.050Z,1005.04
2019-04-22T05:58:34.491Z,1005.88
2019-04-22T06:02:40.070Z,1006.75
2019-04-22T06:06:43.005Z,1008.51
2019-04-22T06:14:25.899Z,1010.43
2019-04-22T06:18:27.182Z,1010.94
2019-04-22T06:26:26.605Z,1010.72
2019-04-22T06:30:41.473Z,1010.3
2019-04-22T06:35:03.534Z,1010.22
2019-04-22T06:49:55.472Z,1011.99
2019-04-22T06:57:37.834Z,1010.64
2019-04-22T07:00:43.424Z,1010.91
2019-04-22T07:04:51.958Z,1010.9
2019-04-22T07:09:20.713Z,1011.61
2019-04-22T07:13:35.932Z,1011.4
2019-04-22T07:17:56.843Z,1012.16
2019-04-22T07:21:57.544Z,1012.5
2019-04-22T07:25:45.213Z,1014.09
2019-04-22T07:29:57.084Z,1014.8
2019-04-22T07:34:16.059Z,1015.71
2019-04-22T07:41:59.130Z,1015.39
2019-04-22T07:49:47.182Z,1015.39
2019-04-22T07:53:57.388Z,1015.24
2019-04-22T07:57:59.393Z,1015.63
2019-04-22T08:05:52.224Z,1016.35
2019-04-22T08:13:38.839Z,1016.48
2019-04-22T08:17:55.119Z,1016.45
2019-04-22T08:22:12.241Z,1016.89
2019-04-22T08:26:12.996Z,1017.54
2019-04-22T08:30:29.029Z,1017.2
2019-04-22T08:34:24.585Z,1018.5
2019-04-22T08:38:37.793Z,1018.73
2019-04-22T08:42:53.426Z,1018.81
2019-04-22T08:50:48.914Z,1021.09
2019-04-22T08:55:01.785Z,1021.1
2019-04-22T09:00:37.541Z,1020.75
2019-04-22T09:04:44.648Z,1019.04
2019-04-22T09:12:26.496Z,1019.94
2019-04-22T09:16:39.845Z,1021.06
2019-04-22T09:28:00.769Z,1021.56
2019-04-22T09:32:05.543Z,1022.15
2019-04-22T09:36:12.794Z,1021.81
2019-04-22T09:40:21.712Z,1022.64
2019-04-22T09:44:28.803Z,1022.55
2019-04-22T09:52:10.502Z,1021.66
2019-04-22T09:59:57.492Z,1021.71
2019-04-22T10:08:22.248Z,1023.02
2019-04-22T10:12:36.722Z,1025.24
2019-04-22T10:16:45.566Z,1024.43
2019-04-22T10:20:38.163Z,1025.05
2019-04-22T10:24:43.261Z,1024.2
2019-04-22T10:28:44.597Z,1023.49
2019-04-22T10:32:59.437Z,1022.69
2019-04-22T10:36:50.981Z,1020.67
2019-04-22T10:40:29.478Z,1020.37
2019-04-22T10:43:59.613Z,1019.88
2019-04-22T10:47:29.841Z,1018.59
2019-04-22T10:51:00.980Z,1018.93
2019-04-22T10:54:31.478Z,1018.81
2019-04-22T10:58:02.299Z,1019.25
2019-04-22T11:00:17.647Z,1019.35
2019-04-22T11:03:49.104Z,1022.04
2019-04-22T11:07:24.575Z,1023.73
2019-04-22T11:11:16.256Z,1025.95
2019-04-22T11:14:58.092Z,1027.9
2019-04-22T11:18:29.607Z,1029.6
2019-04-22T11:22:07.727Z,1030.59
2019-04-22T11:25:46.064Z,1031.95
2019-04-22T11:29:17.404Z,1031.43
2019-04-22T11:32:48.691Z,1029.69
2019-04-22T11:36:19.907Z,1027.81
2019-04-22T11:40:04.378Z,1025.79
2019-04-22T11:43:36.967Z,1024.66
2019-04-22T11:47:07.573Z,1026.67
2019-04-22T11:50:37.868Z,1029.17
2019-04-22T11:54:07.921Z,1030.47
2019-04-22T11:57:39.211Z,1030.23
2019-04-22T12:01:10.837Z,1031.4
2019-04-22T12:04:41.108Z,1030.44
2019-04-22T12:08:11.397Z,1031.7
2019-04-22T12:11:41.528Z,1033.34
2019-04-22T12:15:12.803Z,1034.87
2019-04-22T12:18:43.120Z,1031.62
2019-04-22T12:22:13.345Z,1028.53
2019-04-22T12:25:53.569Z,1027.01
2019-04-22T12:29:28.964Z,1029.33
2019-04-22T12:33:00.158Z,1030.78
2019-04-22T12:36:30.709Z,1032.65
2019-04-22T12:40:02.528Z,1031.17
2019-04-22T12:43:33.638Z,1032.75
2019-04-22T12:47:05.381Z,1033.74
2019-04-22T12:50:40.368Z,1033.48
2019-04-22T12:54:15.112Z,1034.55
2019-04-22T12:57:46.331Z,1035.67
2019-04-22T13:00:17.905Z,1035.95
2019-04-22T13:03:47.949Z,1035.12
2019-04-22T13:07:17.987Z,1033.12
2019-04-22T13:10:53.666Z,1030.75
2019-04-22T13:14:30.536Z,1030.93
2019-04-22T13:18:10.630Z,1033.78
2019-04-22T13:21:46.770Z,1033.98
2019-04-22T13:25:17.691Z,1036.93
2019-04-22T13:28:48.958Z,1039.1
2019-04-22T13:32:20.607Z,1040.36
2019-04-22T13:35:52.145Z,1040.33
2019-04-22T13:39:22.874Z,1041
2019-04-22T13:42:53.528Z,1040.09
2019-04-22T13:46:24.084Z,1041.39
2019-04-22T13:50:28.226Z,1041.72
2019-04-22T13:54:48.881Z,1039.32
2019-04-22T13:58:45.878Z,1040.17
2019-04-22T14:02:50.626Z,1039.85
2019-04-22T14:06:20.869Z,1040.57
2019-04-22T14:09:50.943Z,1040.01
2019-04-22T14:13:21.686Z,1037.9
2019-04-22T14:16:53.124Z,1037
2019-04-22T14:20:26.979Z,1037.32
2019-04-22T14:24:00.392Z,1037.49
2019-04-22T14:27:41.400Z,1037.59
2019-04-22T14:31:18.584Z,1034.92
2019-04-22T14:34:49.082Z,1033.89
2019-04-22T14:38:19.222Z,1035.93
2019-04-22T14:46:01.671Z,1032.95
2019-04-22T14:53:40.474Z,1037.35
2019-04-22T14:57:21.372Z,1036.87
2019-04-22T15:00:20.002Z,1038.53
2019-04-22T15:03:50.416Z,1037.86
2019-04-22T15:07:21.089Z,1033.96
2019-04-22T15:10:51.704Z,1030.31
2019-04-22T15:14:23.264Z,1029.99
2019-04-22T15:17:58.916Z,1031.64
2019-04-22T15:21:30.046Z,1035.15
2019-04-22T15:25:00.748Z,1037.8
2019-04-22T15:28:31.464Z,1036.48
2019-04-22T15:32:03.012Z,1034.82
2019-04-22T15:35:33.664Z,1033.32
2019-04-22T15:39:05.452Z,1032.49
2019-04-22T15:42:39.580Z,1031.3
2019-04-22T15:46:11.990Z,1029.77
2019-04-22T15:49:42.306Z,1028.3
2019-04-22T15:53:13.815Z,1026.7
2019-04-22T15:56:44.448Z,1024.25
2019-04-22T16:00:25.169Z,1021.43
2019-04-22T16:04:00.626Z,1019.54
2019-04-22T16:07:31.856Z,1016.98
2019-04-22T16:11:02.152Z,1014.14
2019-04-22T16:14:39.395Z,1013.44
2019-04-22T16:18:15.137Z,1013.12
2019-04-22T16:21:55.319Z,1012.95
2019-04-22T16:25:45.301Z,1011.77
2019-04-22T16:29:15.947Z,1011.39
2019-04-22T16:32:47.491Z,1011.04
2019-04-22T16:36:18.616Z,1010.74
2019-04-22T16:39:50.357Z,1009.98
2019-04-22T16:43:22.562Z,1009.3
2019-04-22T16:46:52.814Z,1008.55
2019-04-22T16:50:23.134Z,1007.74
2019-04-22T16:53:53.956Z,1007.07
2019-04-22T16:57:26.027Z,1006.21
2019-04-22T17:00:18.470Z,1005.53
2019-04-22T17:06:14.548Z,1004.37
2019-04-22T17:09:45.790Z,1003.92
2019-04-22T17:13:20.916Z,1003.3
2019-04-22T17:16:54.756Z,1002.68
2019-04-22T17:20:25.165Z,1002.15
2019-04-22T17:23:56.176Z,1001.54
2019-04-22T17:27:26.608Z,1001.11
2019-04-22T17:30:57.525Z,1000.37
2019-04-22T17:34:27.818Z,1000.05
2019-04-22T17:38:08.888Z,999.74
2019-04-22T17:42:01.955Z,999.53
2019-04-22T17:46:51.013Z,999.18
2019-04-22T17:50:53.903Z,998.89
2019-04-22T17:54:51.543Z,998.63
2019-04-22T17:59:00.388Z,998.27
2019-04-22T18:03:01.814Z,998.03
2019-04-22T18:06:55.014Z,997.86
2019-04-22T18:10:56.074Z,997.52
2019-04-22T18:15:07.127Z,997.32
2019-04-22T18:19:00.265Z,997
2019-04-22T18:22:54.317Z,996.72
2019-04-22T18:30:20.445Z,996.14
2019-04-22T18:34:10.134Z,995.92
2019-04-22T18:38:20.689Z,995.56
2019-04-22T18:46:11.301Z,995.11
2019-04-22T18:50:24.698Z,994.68
2019-04-22T18:58:20.695Z,994.21
2019-04-22T19:00:36.341Z,994.21
2019-04-22T19:04:13.226Z,994.13
2019-04-22T19:08:07.703Z,994.09
2019-04-22T19:16:09.838Z,993.73
2019-04-22T19:23:54.326Z,993.19
2019-04-22T19:28:11.571Z,993.14
2019-04-22T19:32:23.103Z,993.12
2019-04-22T19:36:25.628Z,992.8
2019-04-22T19:40:52.908Z,992.8
2019-04-22T19:44:50.783Z,992.71
2019-04-22T19:52:24.540Z,992.79
2019-04-22T19:56:11.555Z,992.75
2019-04-22T20:00:17.980Z,992.83
2019-04-22T20:04:28.175Z,992.89
2019-04-22T20:08:30.223Z,992.67
2019-04-22T20:12:33.261Z,992.42
2019-04-22T20:16:27.219Z,992.29
2019-04-22T20:20:27.363Z,992.46
2019-04-22T20:24:06.673Z,992.39
2019-04-22T20:28:01.403Z,992.45
2019-04-22T20:32:05.718Z,992.5
2019-04-22T20:36:26.407Z,992.31
2019-04-22T20:40:31.884Z,992.28
2019-04-22T20:44:33.508Z,992.17
2019-04-22T20:48:37.568Z,992.01
2019-04-22T20:52:50.429Z,991.96
2019-04-22T20:56:49.180Z,991.73
2019-04-22T21:00:31.154Z,991.88
2019-04-22T21:04:18.224Z,991.82
2019-04-22T21:08:11.424Z,991.73
2019-04-22T21:12:05.036Z,991.82
2019-04-22T21:16:12.258Z,991.8
2019-04-22T21:20:13.587Z,991.79
2019-04-22T21:24:13.964Z,991.55
2019-04-22T21:28:15.818Z,991.35
2019-04-22T21:32:23.982Z,991.39
2019-04-22T21:36:25.423Z,991.5
2019-04-22T21:40:30.144Z,991.39
2019-04-22T21:44:29.637Z,991.17
2019-04-22T21:52:13.942Z,990.95
2019-04-22T22:00:09.696Z,991.01
2019-04-22T22:04:22.014Z,991.22
2019-04-22T22:08:30.113Z,991.22
2019-04-22T22:12:36.154Z,991.27
2019-04-22T22:16:32.773Z,991.19
2019-04-22T22:20:43.590Z,991.22
2019-04-22T22:24:57.146Z,991.31
2019-04-22T22:29:05.321Z,991.39
2019-04-22T22:40:07.187Z,990.94
2019-04-22T22:43:46.721Z,990.46
2019-04-22T22:47:42.225Z,990.4
2019-04-22T22:51:39.634Z,990.11
2019-04-22T22:55:44.879Z,990.11
2019-04-22T22:59:43.065Z,990.13
2019-04-22T23:00:36.961Z,990.08
2019-04-22T23:04:37.137Z,990.07
2019-04-22T23:08:36.262Z,989.94
2019-04-22T23:16:10.038Z,990.01
2019-04-22T23:19:52.104Z,990.26
2019-04-22T23:23:37.878Z,990.23
2019-04-22T23:27:44.502Z,990.43
2019-04-22T23:31:44.272Z,990.55
2019-04-22T23:35:42.496Z,990.49
2019-04-22T23:39:41.527Z,990.58
2019-04-22T23:43:38.688Z,990.68
2019-04-22T23:47:35.031Z,990.84
2019-04-22T23:51:25.372Z,991.08
2019-04-22T23:55:31.504Z,991.53
2019-04-22T23:59:38.593Z,991.58
